sensor_id;sensor_type;location;lat;lon;timestamp;P1;durP1;ratioP1;P2;durP2;ratioP2
78885;SDS011;68269;52.514;5.722;2023-07-29T00:01:10;3.80;;;0.98;;
78885;SDS011;68269;52.514;5.722;2023-07-29T00:03:39;7.25;;;1.45;;
78885;SDS011;68269;52.514;5.722;2023-07-29T00:06:09;3.65;;;1.08;;
78885;SDS011;68269;52.514;5.722;2023-07-29T00:08:41;5.55;;;1.30;;
78885;SDS011;68269;52.514;5.722;2023-07-29T00:11:10;5.43;;;1.23;;
78885;SDS011;68269;52.514;5.722;2023-07-29T00:13:40;4.95;;;1.23;;
78885;SDS011;68269;52.514;5.722;2023-07-29T00:16:09;5.53;;;1.27;;
78885;SDS011;68269;52.514;5.722;2023-07-29T00:18:41;3.85;;;1.15;;
78885;SDS011;68269;52.514;5.722;2023-07-29T00:21:10;5.00;;;0.80;;
78885;SDS011;68269;52.514;5.722;2023-07-29T00:23:42;4.43;;;0.98;;
78885;SDS011;68269;52.514;5.722;2023-07-29T00:26:11;4.70;;;1.17;;
78885;SDS011;68269;52.514;5.722;2023-07-29T00:28:41;4.20;;;0.93;;
78885;SDS011;68269;52.514;5.722;2023-07-29T00:31:10;3.90;;;1.00;;
78885;SDS011;68269;52.514;5.722;2023-07-29T00:33:39;4.55;;;1.08;;
78885;SDS011;68269;52.514;5.722;2023-07-29T00:36:09;5.30;;;0.93;;
78885;SDS011;68269;52.514;5.722;2023-07-29T00:38:38;6.05;;;1.20;;
78885;SDS011;68269;52.514;5.722;2023-07-29T00:41:10;3.85;;;0.80;;
78885;SDS011;68269;52.514;5.722;2023-07-29T00:43:42;2.63;;;0.55;;
78885;SDS011;68269;52.514;5.722;2023-07-29T00:46:11;5.30;;;1.00;;
78885;SDS011;68269;52.514;5.722;2023-07-29T00:48:41;3.97;;;0.85;;
78885;SDS011;68269;52.514;5.722;2023-07-29T00:51:10;6.07;;;1.00;;
78885;SDS011;68269;52.514;5.722;2023-07-29T00:53:40;3.78;;;0.70;;
78885;SDS011;68269;52.514;5.722;2023-07-29T00:56:12;5.70;;;0.90;;
78885;SDS011;68269;52.514;5.722;2023-07-29T00:58:43;3.58;;;0.80;;
78885;SDS011;68269;52.514;5.722;2023-07-29T01:01:12;3.13;;;0.45;;
78885;SDS011;68269;52.514;5.722;2023-07-29T01:03:42;3.45;;;0.70;;
78885;SDS011;68269;52.514;5.722;2023-07-29T01:06:12;5.38;;;0.90;;
78885;SDS011;68269;52.514;5.722;2023-07-29T01:08:46;2.83;;;0.40;;
78885;SDS011;68269;52.514;5.722;2023-07-29T01:11:35;3.53;;;0.88;;
78885;SDS011;68269;52.514;5.722;2023-07-29T01:14:15;2.88;;;0.55;;
78885;SDS011;68269;52.514;5.722;2023-07-29T01:16:52;2.72;;;0.80;;
78885;SDS011;68269;52.514;5.722;2023-07-29T01:19:29;3.28;;;0.68;;
78885;SDS011;68269;52.514;5.722;2023-07-29T01:22:11;2.35;;;0.50;;
78885;SDS011;68269;52.514;5.722;2023-07-29T01:24:44;4.75;;;0.75;;
78885;SDS011;68269;52.514;5.722;2023-07-29T01:27:14;2.75;;;0.68;;
78885;SDS011;68269;52.514;5.722;2023-07-29T01:29:43;2.50;;;0.40;;
78885;SDS011;68269;52.514;5.722;2023-07-29T01:32:14;4.60;;;0.50;;
78885;SDS011;68269;52.514;5.722;2023-07-29T01:34:47;1.60;;;0.43;;
78885;SDS011;68269;52.514;5.722;2023-07-29T01:37:22;2.35;;;0.40;;
78885;SDS011;68269;52.514;5.722;2023-07-29T01:39:58;2.50;;;0.40;;
78885;SDS011;68269;52.514;5.722;2023-07-29T01:42:29;4.93;;;0.50;;
78885;SDS011;68269;52.514;5.722;2023-07-29T01:44:59;2.10;;;0.30;;
78885;SDS011;68269;52.514;5.722;2023-07-29T01:47:29;3.05;;;0.32;;
78885;SDS011;68269;52.514;5.722;2023-07-29T01:49:59;1.98;;;0.30;;
78885;SDS011;68269;52.514;5.722;2023-07-29T01:52:29;2.47;;;0.40;;
78885;SDS011;68269;52.514;5.722;2023-07-29T01:55:01;4.55;;;0.30;;
78885;SDS011;68269;52.514;5.722;2023-07-29T01:57:30;4.80;;;0.60;;
78885;SDS011;68269;52.514;5.722;2023-07-29T02:00:00;3.83;;;0.50;;
78885;SDS011;68269;52.514;5.722;2023-07-29T02:02:40;1.60;;;0.28;;
78885;SDS011;68269;52.514;5.722;2023-07-29T02:05:09;3.08;;;0.40;;
78885;SDS011;68269;52.514;5.722;2023-07-29T02:07:39;2.58;;;0.45;;
78885;SDS011;68269;52.514;5.722;2023-07-29T02:10:11;1.67;;;0.30;;
78885;SDS011;68269;52.514;5.722;2023-07-29T02:12:40;5.40;;;0.60;;
78885;SDS011;68269;52.514;5.722;2023-07-29T02:15:09;2.40;;;0.52;;
78885;SDS011;68269;52.514;5.722;2023-07-29T02:17:40;3.65;;;0.47;;
78885;SDS011;68269;52.514;5.722;2023-07-29T02:20:10;0.63;;;0.25;;
78885;SDS011;68269;52.514;5.722;2023-07-29T02:22:40;1.15;;;0.22;;
78885;SDS011;68269;52.514;5.722;2023-07-29T02:25:12;2.17;;;0.38;;
78885;SDS011;68269;52.514;5.722;2023-07-29T02:27:41;4.38;;;0.50;;
78885;SDS011;68269;52.514;5.722;2023-07-29T02:30:10;3.25;;;0.60;;
78885;SDS011;68269;52.514;5.722;2023-07-29T02:32:40;1.58;;;0.30;;
78885;SDS011;68269;52.514;5.722;2023-07-29T02:35:09;1.67;;;0.40;;
78885;SDS011;68269;52.514;5.722;2023-07-29T02:37:38;4.20;;;0.60;;
78885;SDS011;68269;52.514;5.722;2023-07-29T02:40:08;4.18;;;0.65;;
78885;SDS011;68269;52.514;5.722;2023-07-29T02:42:41;2.35;;;0.63;;
78885;SDS011;68269;52.514;5.722;2023-07-29T02:45:10;1.50;;;0.28;;
78885;SDS011;68269;52.514;5.722;2023-07-29T02:47:39;3.65;;;0.32;;
78885;SDS011;68269;52.514;5.722;2023-07-29T02:50:09;2.55;;;0.47;;
78885;SDS011;68269;52.514;5.722;2023-07-29T02:52:38;2.20;;;0.50;;
78885;SDS011;68269;52.514;5.722;2023-07-29T02:55:08;5.95;;;0.75;;
78885;SDS011;68269;52.514;5.722;2023-07-29T02:57:40;2.17;;;0.30;;
78885;SDS011;68269;52.514;5.722;2023-07-29T03:00:10;2.95;;;0.50;;
78885;SDS011;68269;52.514;5.722;2023-07-29T03:02:41;3.92;;;0.60;;
78885;SDS011;68269;52.514;5.722;2023-07-29T03:05:10;2.55;;;0.40;;
78885;SDS011;68269;52.514;5.722;2023-07-29T03:07:39;4.97;;;0.40;;
78885;SDS011;68269;52.514;5.722;2023-07-29T03:10:10;2.75;;;0.85;;
78885;SDS011;68269;52.514;5.722;2023-07-29T03:12:42;2.35;;;0.45;;
78885;SDS011;68269;52.514;5.722;2023-07-29T03:15:12;3.60;;;0.60;;
78885;SDS011;68269;52.514;5.722;2023-07-29T03:17:41;3.35;;;0.52;;
78885;SDS011;68269;52.514;5.722;2023-07-29T03:20:11;3.13;;;0.50;;
78885;SDS011;68269;52.514;5.722;2023-07-29T03:22:40;3.15;;;0.70;;
78885;SDS011;68269;52.514;5.722;2023-07-29T03:25:09;3.17;;;0.50;;
78885;SDS011;68269;52.514;5.722;2023-07-29T03:27:41;2.47;;;0.45;;
78885;SDS011;68269;52.514;5.722;2023-07-29T03:30:11;3.53;;;0.60;;
78885;SDS011;68269;52.514;5.722;2023-07-29T03:32:43;3.88;;;0.70;;
78885;SDS011;68269;52.514;5.722;2023-07-29T03:35:16;4.38;;;0.65;;
78885;SDS011;68269;52.514;5.722;2023-07-29T03:37:46;6.00;;;0.90;;
78885;SDS011;68269;52.514;5.722;2023-07-29T03:40:15;3.13;;;0.63;;
78885;SDS011;68269;52.514;5.722;2023-07-29T03:42:47;4.88;;;0.85;;
78885;SDS011;68269;52.514;5.722;2023-07-29T03:45:16;3.75;;;0.75;;
78885;SDS011;68269;52.514;5.722;2023-07-29T03:47:46;3.75;;;0.45;;
78885;SDS011;68269;52.514;5.722;2023-07-29T03:50:15;3.95;;;0.70;;
78885;SDS011;68269;52.514;5.722;2023-07-29T03:52:44;3.92;;;0.52;;
78885;SDS011;68269;52.514;5.722;2023-07-29T03:55:14;2.92;;;0.70;;
78885;SDS011;68269;52.514;5.722;2023-07-29T03:57:43;4.78;;;0.65;;
78885;SDS011;68269;52.514;5.722;2023-07-29T04:00:15;5.18;;;1.13;;
78885;SDS011;68269;52.514;5.722;2023-07-29T04:02:48;4.38;;;0.77;;
78885;SDS011;68269;52.514;5.722;2023-07-29T04:05:17;4.55;;;1.13;;
78885;SDS011;68269;52.514;5.722;2023-07-29T04:07:47;4.25;;;0.90;;
78885;SDS011;68269;52.514;5.722;2023-07-29T04:10:17;4.93;;;0.68;;
78885;SDS011;68269;52.514;5.722;2023-07-29T04:12:46;7.90;;;1.02;;
78885;SDS011;68269;52.514;5.722;2023-07-29T04:15:18;4.60;;;0.65;;
78885;SDS011;68269;52.514;5.722;2023-07-29T04:17:48;4.13;;;1.10;;
78885;SDS011;68269;52.514;5.722;2023-07-29T04:20:17;4.68;;;0.98;;
78885;SDS011;68269;52.514;5.722;2023-07-29T04:22:46;3.50;;;0.85;;
78885;SDS011;68269;52.514;5.722;2023-07-29T04:25:15;4.93;;;1.05;;
78885;SDS011;68269;52.514;5.722;2023-07-29T04:27:45;8.30;;;1.33;;
78885;SDS011;68269;52.514;5.722;2023-07-29T04:30:14;3.50;;;0.63;;
78885;SDS011;68269;52.514;5.722;2023-07-29T04:32:46;3.67;;;0.90;;
78885;SDS011;68269;52.514;5.722;2023-07-29T04:35:16;5.28;;;1.00;;
78885;SDS011;68269;52.514;5.722;2023-07-29T04:37:45;5.60;;;1.15;;
78885;SDS011;68269;52.514;5.722;2023-07-29T04:40:15;6.78;;;1.38;;
78885;SDS011;68269;52.514;5.722;2023-07-29T04:42:45;5.18;;;1.05;;
78885;SDS011;68269;52.514;5.722;2023-07-29T04:45:14;6.00;;;1.00;;
78885;SDS011;68269;52.514;5.722;2023-07-29T04:47:46;2.85;;;0.73;;
78885;SDS011;68269;52.514;5.722;2023-07-29T04:50:15;4.30;;;1.00;;
78885;SDS011;68269;52.514;5.722;2023-07-29T04:52:45;4.22;;;0.70;;
78885;SDS011;68269;52.514;5.722;2023-07-29T04:55:14;4.40;;;1.00;;
78885;SDS011;68269;52.514;5.722;2023-07-29T04:57:44;5.65;;;1.00;;
78885;SDS011;68269;52.514;5.722;2023-07-29T05:00:13;2.92;;;0.85;;
78885;SDS011;68269;52.514;5.722;2023-07-29T05:02:45;6.28;;;1.08;;
78885;SDS011;68269;52.514;5.722;2023-07-29T05:05:15;5.07;;;1.02;;
78885;SDS011;68269;52.514;5.722;2023-07-29T05:07:44;4.30;;;0.70;;
78885;SDS011;68269;52.514;5.722;2023-07-29T05:10:14;4.10;;;0.98;;
78885;SDS011;68269;52.514;5.722;2023-07-29T05:12:43;3.67;;;0.73;;
78885;SDS011;68269;52.514;5.722;2023-07-29T05:15:13;3.67;;;0.77;;
78885;SDS011;68269;52.514;5.722;2023-07-29T05:17:47;6.45;;;1.25;;
78885;SDS011;68269;52.514;5.722;2023-07-29T05:20:16;4.68;;;0.88;;
78885;SDS011;68269;52.514;5.722;2023-07-29T05:22:45;4.90;;;0.95;;
78885;SDS011;68269;52.514;5.722;2023-07-29T05:25:15;5.00;;;0.93;;
78885;SDS011;68269;52.514;5.722;2023-07-29T05:27:44;5.20;;;0.80;;
78885;SDS011;68269;52.514;5.722;2023-07-29T05:30:14;4.45;;;0.85;;
78885;SDS011;68269;52.514;5.722;2023-07-29T05:32:43;4.38;;;0.80;;
78885;SDS011;68269;52.514;5.722;2023-07-29T05:35:15;6.70;;;1.45;;
78885;SDS011;68269;52.514;5.722;2023-07-29T05:37:45;6.10;;;1.25;;
78885;SDS011;68269;52.514;5.722;2023-07-29T05:40:14;5.18;;;1.00;;
78885;SDS011;68269;52.514;5.722;2023-07-29T05:42:44;3.97;;;0.80;;
78885;SDS011;68269;52.514;5.722;2023-07-29T05:45:13;5.35;;;1.00;;
78885;SDS011;68269;52.514;5.722;2023-07-29T05:47:43;5.07;;;0.63;;
78885;SDS011;68269;52.514;5.722;2023-07-29T05:50:15;5.30;;;1.08;;
78885;SDS011;68269;52.514;5.722;2023-07-29T05:52:44;3.78;;;1.10;;
78885;SDS011;68269;52.514;5.722;2023-07-29T05:55:13;4.20;;;0.88;;
78885;SDS011;68269;52.514;5.722;2023-07-29T05:57:43;4.07;;;1.13;;
78885;SDS011;68269;52.514;5.722;2023-07-29T06:00:12;4.32;;;0.82;;
78885;SDS011;68269;52.514;5.722;2023-07-29T06:02:41;5.18;;;1.02;;
78885;SDS011;68269;52.514;5.722;2023-07-29T06:05:18;4.82;;;1.13;;
78885;SDS011;68269;52.514;5.722;2023-07-29T06:07:47;4.25;;;0.85;;
78885;SDS011;68269;52.514;5.722;2023-07-29T06:10:16;5.00;;;1.02;;
78885;SDS011;68269;52.514;5.722;2023-07-29T06:12:46;1.95;;;0.60;;
78885;SDS011;68269;52.514;5.722;2023-07-29T06:15:15;4.45;;;1.20;;
78885;SDS011;68269;52.514;5.722;2023-07-29T06:17:47;5.53;;;1.10;;
78885;SDS011;68269;52.514;5.722;2023-07-29T06:20:19;4.38;;;0.80;;
78885;SDS011;68269;52.514;5.722;2023-07-29T06:22:49;5.07;;;1.20;;
78885;SDS011;68269;52.514;5.722;2023-07-29T06:25:18;5.60;;;0.90;;
78885;SDS011;68269;52.514;5.722;2023-07-29T06:27:48;3.80;;;1.08;;
78885;SDS011;68269;52.514;5.722;2023-07-29T06:30:17;5.00;;;1.20;;
78885;SDS011;68269;52.514;5.722;2023-07-29T06:32:46;4.78;;;0.93;;
78885;SDS011;68269;52.514;5.722;2023-07-29T06:35:16;5.22;;;1.63;;
78885;SDS011;68269;52.514;5.722;2023-07-29T06:37:48;5.35;;;1.02;;
78885;SDS011;68269;52.514;5.722;2023-07-29T06:40:17;3.90;;;0.70;;
78885;SDS011;68269;52.514;5.722;2023-07-29T06:42:46;4.95;;;0.98;;
78885;SDS011;68269;52.514;5.722;2023-07-29T06:45:16;4.95;;;1.20;;
78885;SDS011;68269;52.514;5.722;2023-07-29T06:47:45;5.25;;;0.88;;
78885;SDS011;68269;52.514;5.722;2023-07-29T06:50:15;6.95;;;1.40;;
78885;SDS011;68269;52.514;5.722;2023-07-29T06:52:44;6.78;;;0.93;;
78885;SDS011;68269;52.514;5.722;2023-07-29T06:55:16;5.50;;;1.25;;
78885;SDS011;68269;52.514;5.722;2023-07-29T06:57:45;5.40;;;1.10;;
78885;SDS011;68269;52.514;5.722;2023-07-29T07:00:15;4.18;;;1.10;;
78885;SDS011;68269;52.514;5.722;2023-07-29T07:02:44;5.95;;;1.23;;
78885;SDS011;68269;52.514;5.722;2023-07-29T07:05:13;2.95;;;1.02;;
78885;SDS011;68269;52.514;5.722;2023-07-29T07:07:43;5.15;;;1.45;;
78885;SDS011;68269;52.514;5.722;2023-07-29T07:10:15;5.90;;;1.40;;
78885;SDS011;68269;52.514;5.722;2023-07-29T07:12:44;7.25;;;1.23;;
78885;SDS011;68269;52.514;5.722;2023-07-29T07:15:13;4.90;;;1.13;;
78885;SDS011;68269;52.514;5.722;2023-07-29T07:17:43;5.82;;;1.20;;
78885;SDS011;68269;52.514;5.722;2023-07-29T07:20:12;6.15;;;1.50;;
78885;SDS011;68269;52.514;5.722;2023-07-29T07:22:42;5.78;;;1.20;;
78885;SDS011;68269;52.514;5.722;2023-07-29T07:25:11;8.73;;;1.40;;
78885;SDS011;68269;52.514;5.722;2023-07-29T07:27:43;5.88;;;1.42;;
78885;SDS011;68269;52.514;5.722;2023-07-29T07:30:12;4.43;;;1.00;;
78885;SDS011;68269;52.514;5.722;2023-07-29T07:32:42;3.55;;;0.95;;
78885;SDS011;68269;52.514;5.722;2023-07-29T07:35:11;3.40;;;0.68;;
78885;SDS011;68269;52.514;5.722;2023-07-29T07:37:40;8.68;;;1.25;;
78885;SDS011;68269;52.514;5.722;2023-07-29T07:40:10;6.93;;;1.35;;
78885;SDS011;68269;52.514;5.722;2023-07-29T07:42:39;5.68;;;1.30;;
78885;SDS011;68269;52.514;5.722;2023-07-29T07:45:11;5.70;;;1.25;;
78885;SDS011;68269;52.514;5.722;2023-07-29T07:47:41;5.70;;;1.10;;
78885;SDS011;68269;52.514;5.722;2023-07-29T07:50:10;5.18;;;1.23;;
78885;SDS011;68269;52.514;5.722;2023-07-29T07:52:39;3.97;;;1.10;;
78885;SDS011;68269;52.514;5.722;2023-07-29T07:55:09;7.68;;;1.65;;
78885;SDS011;68269;52.514;5.722;2023-07-29T07:57:38;4.10;;;1.02;;
78885;SDS011;68269;52.514;5.722;2023-07-29T08:00:11;9.63;;;1.50;;
78885;SDS011;68269;52.514;5.722;2023-07-29T08:02:43;6.97;;;1.40;;
78885;SDS011;68269;52.514;5.722;2023-07-29T08:05:12;4.85;;;1.20;;
78885;SDS011;68269;52.514;5.722;2023-07-29T08:07:42;4.28;;;1.33;;
78885;SDS011;68269;52.514;5.722;2023-07-29T08:10:11;4.25;;;0.80;;
78885;SDS011;68269;52.514;5.722;2023-07-29T08:12:40;4.75;;;1.05;;
78885;SDS011;68269;52.514;5.722;2023-07-29T08:15:12;7.88;;;1.25;;
78885;SDS011;68269;52.514;5.722;2023-07-29T08:17:41;4.85;;;1.50;;
78885;SDS011;68269;52.514;5.722;2023-07-29T08:20:11;3.25;;;0.82;;
78885;SDS011;68269;52.514;5.722;2023-07-29T08:22:40;5.07;;;1.10;;
78885;SDS011;68269;52.514;5.722;2023-07-29T08:25:09;7.15;;;1.20;;
78885;SDS011;68269;52.514;5.722;2023-07-29T08:27:39;4.70;;;1.00;;
78885;SDS011;68269;52.514;5.722;2023-07-29T08:30:08;7.07;;;1.38;;
78885;SDS011;68269;52.514;5.722;2023-07-29T08:32:41;3.65;;;0.98;;
78885;SDS011;68269;52.514;5.722;2023-07-29T08:35:11;5.45;;;1.58;;
78885;SDS011;68269;52.514;5.722;2023-07-29T08:37:40;7.47;;;1.30;;
78885;SDS011;68269;52.514;5.722;2023-07-29T08:40:10;4.45;;;1.20;;
78885;SDS011;68269;52.514;5.722;2023-07-29T08:42:41;4.20;;;1.08;;
78885;SDS011;68269;52.514;5.722;2023-07-29T08:45:16;4.88;;;1.02;;
78885;SDS011;68269;52.514;5.722;2023-07-29T08:50:17;3.85;;;1.08;;
78885;SDS011;68269;52.514;5.722;2023-07-29T08:52:47;6.68;;;1.13;;
78885;SDS011;68269;52.514;5.722;2023-07-29T08:55:18;4.43;;;0.93;;
78885;SDS011;68269;52.514;5.722;2023-07-29T08:57:48;5.32;;;1.13;;
78885;SDS011;68269;52.514;5.722;2023-07-29T09:00:20;7.85;;;1.50;;
78885;SDS011;68269;52.514;5.722;2023-07-29T09:02:49;4.70;;;1.02;;
78885;SDS011;68269;52.514;5.722;2023-07-29T09:07:49;5.82;;;1.63;;
78885;SDS011;68269;52.514;5.722;2023-07-29T09:10:21;4.40;;;1.35;;
78885;SDS011;68269;52.514;5.722;2023-07-29T09:12:51;5.78;;;1.60;;
78885;SDS011;68269;52.514;5.722;2023-07-29T09:15:30;5.38;;;1.73;;
78885;SDS011;68269;52.514;5.722;2023-07-29T09:18:08;5.57;;;1.50;;
78885;SDS011;68269;52.514;5.722;2023-07-29T09:20:39;6.88;;;2.03;;
78885;SDS011;68269;52.514;5.722;2023-07-29T09:23:08;4.72;;;1.65;;
78885;SDS011;68269;52.514;5.722;2023-07-29T09:25:38;5.53;;;1.63;;
78885;SDS011;68269;52.514;5.722;2023-07-29T09:28:09;6.03;;;1.85;;
78885;SDS011;68269;52.514;5.722;2023-07-29T09:30:42;5.30;;;1.67;;
78885;SDS011;68269;52.514;5.722;2023-07-29T09:33:13;6.13;;;2.00;;
78885;SDS011;68269;52.514;5.722;2023-07-29T09:35:43;8.77;;;2.00;;
78885;SDS011;68269;52.514;5.722;2023-07-29T09:38:14;7.00;;;2.20;;
78885;SDS011;68269;52.514;5.722;2023-07-29T09:40:43;4.50;;;1.40;;
78885;SDS011;68269;52.514;5.722;2023-07-29T09:43:13;5.88;;;1.70;;
78885;SDS011;68269;52.514;5.722;2023-07-29T09:45:48;6.07;;;1.90;;
78885;SDS011;68269;52.514;5.722;2023-07-29T09:48:22;5.55;;;1.30;;
78885;SDS011;68269;52.514;5.722;2023-07-29T09:50:51;3.33;;;0.90;;
78885;SDS011;68269;52.514;5.722;2023-07-29T09:53:21;5.38;;;1.23;;
78885;SDS011;68269;52.514;5.722;2023-07-29T09:55:50;3.20;;;0.70;;
78885;SDS011;68269;52.514;5.722;2023-07-29T09:58:26;3.13;;;0.70;;
78885;SDS011;68269;52.514;5.722;2023-07-29T10:00:58;3.22;;;0.82;;
78885;SDS011;68269;52.514;5.722;2023-07-29T10:03:27;4.05;;;0.70;;
78885;SDS011;68269;52.514;5.722;2023-07-29T10:05:59;6.20;;;0.75;;
78885;SDS011;68269;52.514;5.722;2023-07-29T10:08:29;4.03;;;0.90;;
78885;SDS011;68269;52.514;5.722;2023-07-29T10:11:01;4.30;;;0.70;;
78885;SDS011;68269;52.514;5.722;2023-07-29T10:13:31;4.40;;;0.90;;
78885;SDS011;68269;52.514;5.722;2023-07-29T10:16:03;2.35;;;0.43;;
78885;SDS011;68269;52.514;5.722;2023-07-29T10:18:33;2.03;;;0.63;;
78885;SDS011;68269;52.514;5.722;2023-07-29T10:21:03;3.17;;;0.65;;
78885;SDS011;68269;52.514;5.722;2023-07-29T10:23:35;4.10;;;0.73;;
78885;SDS011;68269;52.514;5.722;2023-07-29T10:26:09;5.80;;;0.70;;
78885;SDS011;68269;52.514;5.722;2023-07-29T10:28:41;2.83;;;0.57;;
78885;SDS011;68269;52.514;5.722;2023-07-29T10:31:17;3.03;;;0.60;;
78885;SDS011;68269;52.514;5.722;2023-07-29T10:33:49;2.80;;;0.70;;
78885;SDS011;68269;52.514;5.722;2023-07-29T10:47:51;7.45;;;0.75;;
78885;SDS011;68269;52.514;5.722;2023-07-29T10:50:21;2.50;;;0.60;;
78885;SDS011;68269;52.514;5.722;2023-07-29T10:52:54;5.32;;;0.73;;
78885;SDS011;68269;52.514;5.722;2023-07-29T10:55:26;3.22;;;0.63;;
78885;SDS011;68269;52.514;5.722;2023-07-29T10:58:06;5.32;;;0.80;;
78885;SDS011;68269;52.514;5.722;2023-07-29T11:00:37;3.65;;;0.68;;
78885;SDS011;68269;52.514;5.722;2023-07-29T11:03:11;4.47;;;0.68;;
78885;SDS011;68269;52.514;5.722;2023-07-29T11:05:41;3.78;;;0.63;;
78885;SDS011;68269;52.514;5.722;2023-07-29T11:08:16;5.60;;;0.57;;
78885;SDS011;68269;52.514;5.722;2023-07-29T11:11:01;2.63;;;0.65;;
78885;SDS011;68269;52.514;5.722;2023-07-29T11:13:35;3.72;;;0.70;;
78885;SDS011;68269;52.514;5.722;2023-07-29T11:16:05;2.97;;;0.70;;
78885;SDS011;68269;52.514;5.722;2023-07-29T11:18:37;3.95;;;0.70;;
78885;SDS011;68269;52.514;5.722;2023-07-29T11:21:07;5.82;;;0.85;;
78885;SDS011;68269;52.514;5.722;2023-07-29T11:23:36;2.25;;;0.60;;
78885;SDS011;68269;52.514;5.722;2023-07-29T11:26:06;5.00;;;0.70;;
78885;SDS011;68269;52.514;5.722;2023-07-29T11:28:37;3.30;;;0.55;;
78885;SDS011;68269;52.514;5.722;2023-07-29T11:31:07;3.83;;;0.80;;
78885;SDS011;68269;52.514;5.722;2023-07-29T11:33:39;1.58;;;0.55;;
78885;SDS011;68269;52.514;5.722;2023-07-29T11:36:17;1.52;;;0.55;;
78885;SDS011;68269;52.514;5.722;2023-07-29T11:38:47;2.90;;;0.60;;
78885;SDS011;68269;52.514;5.722;2023-07-29T11:41:19;3.17;;;0.80;;
78885;SDS011;68269;52.514;5.722;2023-07-29T11:43:49;3.05;;;0.80;;
78885;SDS011;68269;52.514;5.722;2023-07-29T11:46:20;3.20;;;0.82;;
78885;SDS011;68269;52.514;5.722;2023-07-29T11:48:53;6.20;;;1.08;;
78885;SDS011;68269;52.514;5.722;2023-07-29T11:53:54;2.90;;;0.60;;
78885;SDS011;68269;52.514;5.722;2023-07-29T11:56:23;3.92;;;0.75;;
78885;SDS011;68269;52.514;5.722;2023-07-29T11:58:53;7.25;;;0.98;;
78885;SDS011;68269;52.514;5.722;2023-07-29T12:01:23;3.42;;;0.90;;
78885;SDS011;68269;52.514;5.722;2023-07-29T12:03:55;5.45;;;1.05;;
78885;SDS011;68269;52.514;5.722;2023-07-29T12:06:25;5.03;;;1.10;;
78885;SDS011;68269;52.514;5.722;2023-07-29T12:08:57;5.72;;;0.90;;
78885;SDS011;68269;52.514;5.722;2023-07-29T12:11:26;5.20;;;0.80;;
78885;SDS011;68269;52.514;5.722;2023-07-29T12:13:56;3.60;;;0.65;;
78885;SDS011;68269;52.514;5.722;2023-07-29T12:16:25;3.10;;;0.70;;
78885;SDS011;68269;52.514;5.722;2023-07-29T12:19:03;3.55;;;0.60;;
78885;SDS011;68269;52.514;5.722;2023-07-29T12:21:33;3.30;;;0.88;;
78885;SDS011;68269;52.514;5.722;2023-07-29T12:24:03;4.53;;;0.80;;
78885;SDS011;68269;52.514;5.722;2023-07-29T12:26:35;2.72;;;0.70;;
78885;SDS011;68269;52.514;5.722;2023-07-29T12:29:11;3.40;;;0.70;;
78885;SDS011;68269;52.514;5.722;2023-07-29T12:31:41;3.40;;;0.80;;
78885;SDS011;68269;52.514;5.722;2023-07-29T12:34:16;3.95;;;0.75;;
78885;SDS011;68269;52.514;5.722;2023-07-29T12:36:47;3.28;;;0.68;;
78885;SDS011;68269;52.514;5.722;2023-07-29T12:39:18;4.00;;;0.80;;
78885;SDS011;68269;52.514;5.722;2023-07-29T12:41:48;3.42;;;1.17;;
78885;SDS011;68269;52.514;5.722;2023-07-29T12:44:19;5.35;;;1.60;;
78885;SDS011;68269;52.514;5.722;2023-07-29T12:46:49;5.43;;;1.60;;
78885;SDS011;68269;52.514;5.722;2023-07-29T12:49:20;5.95;;;1.85;;
78885;SDS011;68269;52.514;5.722;2023-07-29T12:51:50;4.75;;;1.45;;
78885;SDS011;68269;52.514;5.722;2023-07-29T12:54:19;4.70;;;1.50;;
78885;SDS011;68269;52.514;5.722;2023-07-29T12:56:49;5.03;;;1.60;;
78885;SDS011;68269;52.514;5.722;2023-07-29T12:59:18;5.05;;;2.03;;
78885;SDS011;68269;52.514;5.722;2023-07-29T13:01:48;6.22;;;1.70;;
78885;SDS011;68269;52.514;5.722;2023-07-29T13:04:17;4.47;;;1.75;;
78885;SDS011;68269;52.514;5.722;2023-07-29T13:06:49;5.90;;;1.75;;
78885;SDS011;68269;52.514;5.722;2023-07-29T13:09:18;5.00;;;1.38;;
78885;SDS011;68269;52.514;5.722;2023-07-29T13:11:48;4.93;;;1.25;;
78885;SDS011;68269;52.514;5.722;2023-07-29T13:14:17;4.15;;;1.10;;
78885;SDS011;68269;52.514;5.722;2023-07-29T13:16:46;3.55;;;1.10;;
78885;SDS011;68269;52.514;5.722;2023-07-29T13:19:15;4.38;;;1.30;;
78885;SDS011;68269;52.514;5.722;2023-07-29T13:21:49;4.97;;;1.30;;
78885;SDS011;68269;52.514;5.722;2023-07-29T13:24:18;3.38;;;1.10;;
78885;SDS011;68269;52.514;5.722;2023-07-29T13:26:47;3.55;;;0.90;;
78885;SDS011;68269;52.514;5.722;2023-07-29T13:29:17;2.58;;;0.75;;
78885;SDS011;68269;52.514;5.722;2023-07-29T13:31:46;2.65;;;0.90;;
78885;SDS011;68269;52.514;5.722;2023-07-29T13:34:15;2.15;;;0.70;;
78885;SDS011;68269;52.514;5.722;2023-07-29T13:36:45;1.95;;;0.50;;
78885;SDS011;68269;52.514;5.722;2023-07-29T13:39:16;3.60;;;0.73;;
78885;SDS011;68269;52.514;5.722;2023-07-29T13:41:46;3.28;;;0.57;;
78885;SDS011;68269;52.514;5.722;2023-07-29T13:44:15;1.73;;;0.70;;
78885;SDS011;68269;52.514;5.722;2023-07-29T13:46:44;1.70;;;0.40;;
78885;SDS011;68269;52.514;5.722;2023-07-29T13:49:14;2.53;;;0.57;;
78885;SDS011;68269;52.514;5.722;2023-07-29T13:51:43;2.30;;;0.63;;
78885;SDS011;68269;52.514;5.722;2023-07-29T13:54:12;1.85;;;0.50;;
78885;SDS011;68269;52.514;5.722;2023-07-29T13:56:44;2.22;;;0.50;;
78885;SDS011;68269;52.514;5.722;2023-07-29T13:59:14;3.72;;;0.60;;
78885;SDS011;68269;52.514;5.722;2023-07-29T14:01:43;1.73;;;0.45;;
78885;SDS011;68269;52.514;5.722;2023-07-29T14:04:12;2.35;;;0.60;;
78885;SDS011;68269;52.514;5.722;2023-07-29T14:06:41;2.50;;;0.50;;
78885;SDS011;68269;52.514;5.722;2023-07-29T14:09:11;1.73;;;0.47;;
78885;SDS011;68269;52.514;5.722;2023-07-29T14:11:40;1.33;;;0.40;;
78885;SDS011;68269;52.514;5.722;2023-07-29T14:14:14;2.05;;;0.40;;
78885;SDS011;68269;52.514;5.722;2023-07-29T14:16:46;2.00;;;0.70;;
78885;SDS011;68269;52.514;5.722;2023-07-29T14:19:15;1.88;;;0.45;;
78885;SDS011;68269;52.514;5.722;2023-07-29T14:21:44;2.42;;;0.50;;
78885;SDS011;68269;52.514;5.722;2023-07-29T14:24:14;3.42;;;0.45;;
78885;SDS011;68269;52.514;5.722;2023-07-29T14:26:43;1.75;;;0.50;;
78885;SDS011;68269;52.514;5.722;2023-07-29T14:29:15;4.03;;;0.90;;
78885;SDS011;68269;52.514;5.722;2023-07-29T14:31:44;3.08;;;0.47;;
78885;SDS011;68269;52.514;5.722;2023-07-29T14:34:14;4.55;;;0.63;;
78885;SDS011;68269;52.514;5.722;2023-07-29T14:36:43;2.33;;;0.73;;
78885;SDS011;68269;52.514;5.722;2023-07-29T14:39:12;4.07;;;0.68;;
78885;SDS011;68269;52.514;5.722;2023-07-29T14:41:42;1.88;;;0.50;;
78885;SDS011;68269;52.514;5.722;2023-07-29T14:44:11;1.35;;;0.32;;
78885;SDS011;68269;52.514;5.722;2023-07-29T14:46:43;2.50;;;0.68;;
78885;SDS011;68269;52.514;5.722;2023-07-29T14:49:12;4.53;;;0.65;;
78885;SDS011;68269;52.514;5.722;2023-07-29T14:51:42;2.38;;;0.55;;
78885;SDS011;68269;52.514;5.722;2023-07-29T14:54:11;3.63;;;0.52;;
78885;SDS011;68269;52.514;5.722;2023-07-29T14:56:40;2.45;;;0.50;;
78885;SDS011;68269;52.514;5.722;2023-07-29T14:59:10;2.28;;;0.47;;
78885;SDS011;68269;52.514;5.722;2023-07-29T15:01:42;2.15;;;0.60;;
78885;SDS011;68269;52.514;5.722;2023-07-29T15:04:11;4.20;;;0.60;;
78885;SDS011;68269;52.514;5.722;2023-07-29T15:06:41;2.15;;;0.60;;
78885;SDS011;68269;52.514;5.722;2023-07-29T15:09:10;5.70;;;1.00;;
78885;SDS011;68269;52.514;5.722;2023-07-29T15:11:39;5.55;;;1.00;;
78885;SDS011;68269;52.514;5.722;2023-07-29T15:14:09;2.63;;;0.70;;
78885;SDS011;68269;52.514;5.722;2023-07-29T15:16:38;2.58;;;0.52;;
78885;SDS011;68269;52.514;5.722;2023-07-29T15:19:10;2.50;;;0.57;;
78885;SDS011;68269;52.514;5.722;2023-07-29T15:21:39;6.38;;;0.88;;
78885;SDS011;68269;52.514;5.722;2023-07-29T15:24:09;8.48;;;0.98;;
78885;SDS011;68269;52.514;5.722;2023-07-29T15:26:38;4.20;;;0.82;;